sensor_id;sensor_type;location;lat;lon;timestamp;pressure;altitude;pressure_sealevel;temperature;humidity
68634;BME280;55625;47.072;22.192;2023-07-13T00:01:51;99507.59;;;20.62;100.00
68634;BME280;55625;47.072;22.192;2023-07-13T00:04:21;99502.59;;;20.63;100.00
68634;BME280;55625;47.072;22.192;2023-07-13T00:06:48;99499.72;;;20.63;100.00
68634;BME280;55625;47.072;22.192;2023-07-13T00:09:17;99496.31;;;20.64;100.00
68634;BME280;55625;47.072;22.192;2023-07-13T00:11:44;99498.69;;;20.60;100.00
68634;BME280;55625;47.072;22.192;2023-07-13T00:14:11;99494.75;;;20.58;100.00
68634;BME280;55625;47.072;22.192;2023-07-13T00:16:38;99495.56;;;20.58;100.00
68634;BME280;55625;47.072;22.192;2023-07-13T00:19:06;99492.94;;;20.55;100.00
68634;BME280;55625;47.072;22.192;2023-07-13T00:21:32;99497.38;;;20.50;100.00
68634;BME280;55625;47.072;22.192;2023-07-13T00:23:58;99487.69;;;20.48;100.00
68634;BME280;55625;47.072;22.192;2023-07-13T00:26:26;99490.06;;;20.43;100.00
68634;BME280;55625;47.072;22.192;2023-07-13T00:28:51;99475.66;;;20.38;100.00
68634;BME280;55625;47.072;22.192;2023-07-13T00:31:17;99475.94;;;20.40;100.00
68634;BME280;55625;47.072;22.192;2023-07-13T00:33:43;99478.81;;;20.40;100.00
68634;BME280;55625;47.072;22.192;2023-07-13T00:36:10;99474.84;;;20.37;100.00
68634;BME280;55625;47.072;22.192;2023-07-13T00:38:36;99481.16;;;20.36;100.00
68634;BME280;55625;47.072;22.192;2023-07-13T00:41:03;99471.19;;;20.37;100.00
68634;BME280;55625;47.072;22.192;2023-07-13T00:43:30;99467.81;;;20.33;100.00
68634;BME280;55625;47.072;22.192;2023-07-13T00:48:27;99462.28;;;20.35;100.00
68634;BME280;55625;47.072;22.192;2023-07-13T00:50:58;99473.31;;;20.31;100.00
68634;BME280;55625;47.072;22.192;2023-07-13T00:53:28;99472.78;;;20.32;100.00
68634;BME280;55625;47.072;22.192;2023-07-13T00:55:56;99475.91;;;20.34;100.00
68634;BME280;55625;47.072;22.192;2023-07-13T00:58:25;99479.59;;;20.35;100.00
68634;BME280;55625;47.072;22.192;2023-07-13T01:00:53;99481.44;;;20.32;100.00
68634;BME280;55625;47.072;22.192;2023-07-13T01:03:19;99478.81;;;20.34;100.00
68634;BME280;55625;47.072;22.192;2023-07-13T01:05:48;99469.88;;;20.38;100.00
68634;BME280;55625;47.072;22.192;2023-07-13T01:08:14;99472.53;;;20.30;100.00
68634;BME280;55625;47.072;22.192;2023-07-13T01:10:40;99473.84;;;20.29;100.00
68634;BME280;55625;47.072;22.192;2023-07-13T01:13:09;99474.63;;;20.30;100.00
68634;BME280;55625;47.072;22.192;2023-07-13T01:15:43;99480.13;;;20.28;100.00
68634;BME280;55625;47.072;22.192;2023-07-13T01:18:29;99471.22;;;20.31;100.00
68634;BME280;55625;47.072;22.192;2023-07-13T01:20:56;99467.81;;;20.33;100.00
68634;BME280;55625;47.072;22.192;2023-07-13T01:23:24;99462.31;;;20.40;100.00
68634;BME280;55625;47.072;22.192;2023-07-13T01:25:51;99464.66;;;20.36;100.00
68634;BME280;55625;47.072;22.192;2023-07-13T01:28:18;99467.00;;;20.38;100.00
68634;BME280;55625;47.072;22.192;2023-07-13T01:30:46;99478.00;;;20.45;100.00
68634;BME280;55625;47.072;22.192;2023-07-13T01:33:17;99469.09;;;20.37;100.00
68634;BME280;55625;47.072;22.192;2023-07-13T01:35:45;99470.94;;;20.35;100.00
68634;BME280;55625;47.072;22.192;2023-07-13T01:38:14;99476.97;;;20.37;100.00
68634;BME280;55625;47.072;22.192;2023-07-13T01:40:40;99478.28;;;20.36;100.00
68634;BME280;55625;47.072;22.192;2023-07-13T01:43:06;99468.06;;;20.35;100.00
68634;BME280;55625;47.072;22.192;2023-07-13T01:45:32;99462.81;;;20.39;100.00
68634;BME280;55625;47.072;22.192;2023-07-13T01:47:58;99466.72;;;20.47;100.00
68634;BME280;55625;47.072;22.192;2023-07-13T01:50:25;99462.31;;;20.40;100.00
68634;BME280;55625;47.072;22.192;2023-07-13T01:52:51;99465.97;;;20.41;100.00
68634;BME280;55625;47.072;22.192;2023-07-13T01:55:17;99473.03;;;20.34;100.00
68634;BME280;55625;47.072;22.192;2023-07-13T01:57:43;99467.28;;;20.29;100.00
68634;BME280;55625;47.072;22.192;2023-07-13T02:00:11;99465.19;;;20.29;100.00
68634;BME280;55625;47.072;22.192;2023-07-13T02:02:37;99468.59;;;20.28;100.00
68634;BME280;55625;47.072;22.192;2023-07-13T02:05:03;99462.06;;;20.22;100.00
68634;BME280;55625;47.072;22.192;2023-07-13T02:07:28;99457.88;;;20.17;100.00
68634;BME280;55625;47.072;22.192;2023-07-13T02:09:54;99463.09;;;20.19;100.00
68634;BME280;55625;47.072;22.192;2023-07-13T02:12:20;99451.84;;;20.09;100.00
68634;BME280;55625;47.072;22.192;2023-07-13T02:14:46;99448.97;;;20.09;100.00
68634;BME280;55625;47.072;22.192;2023-07-13T02:17:13;99451.34;;;20.05;100.00
68634;BME280;55625;47.072;22.192;2023-07-13T02:19:39;99445.59;;;20.05;100.00
68634;BME280;55625;47.072;22.192;2023-07-13T02:22:05;99452.16;;;19.95;100.00
68634;BME280;55625;47.072;22.192;2023-07-13T02:24:31;99446.41;;;19.95;100.00
68634;BME280;55625;47.072;22.192;2023-07-13T02:26:57;99456.09;;;19.92;100.00
68634;BME280;55625;47.072;22.192;2023-07-13T02:29:23;99454.00;;;19.92;100.00
68634;BME280;55625;47.072;22.192;2023-07-13T02:31:48;99451.88;;;19.98;100.00
68634;BME280;55625;47.072;22.192;2023-07-13T02:34:14;99458.69;;;20.01;100.00
68634;BME280;55625;47.072;22.192;2023-07-13T02:36:40;99455.03;;;19.95;100.00
68634;BME280;55625;47.072;22.192;2023-07-13T02:39:06;99457.38;;;20.02;100.00
68634;BME280;55625;47.072;22.192;2023-07-13T02:41:32;99454.50;;;20.02;100.00
68634;BME280;55625;47.072;22.192;2023-07-13T02:43:58;99454.50;;;20.02;100.00
68634;BME280;55625;47.072;22.192;2023-07-13T02:46:33;99456.59;;;20.01;100.00
68634;BME280;55625;47.072;22.192;2023-07-13T02:49:00;99454.50;;;20.02;100.00
68634;BME280;55625;47.072;22.192;2023-07-13T02:51:26;99451.88;;;19.98;100.00
68634;BME280;55625;47.072;22.192;2023-07-13T02:53:52;99460.78;;;20.00;100.00
68634;BME280;55625;47.072;22.192;2023-07-13T02:56:23;99468.13;;;20.01;100.00
68634;BME280;55625;47.072;22.192;2023-07-13T02:58:50;99476.50;;;20.05;100.00
68634;BME280;55625;47.072;22.192;2023-07-13T03:01:16;99470.47;;;20.03;100.00
68634;BME280;55625;47.072;22.192;2023-07-13T03:03:45;99479.09;;;20.08;100.00
68634;BME280;55625;47.072;22.192;2023-07-13T03:06:12;99480.41;;;20.07;100.00
68634;BME280;55625;47.072;22.192;2023-07-13T03:08:38;99479.09;;;20.08;100.00
68634;BME280;55625;47.072;22.192;2023-07-13T03:11:08;99480.16;;;20.05;100.00
68634;BME280;55625;47.072;22.192;2023-07-13T03:13:37;99485.91;;;20.11;100.00
68634;BME280;55625;47.072;22.192;2023-07-13T03:16:04;99477.25;;;20.11;100.00
68634;BME280;55625;47.072;22.192;2023-07-13T03:18:30;99481.97;;;20.14;100.00
68634;BME280;55625;47.072;22.192;2023-07-13T03:20:56;99481.19;;;20.13;100.00
68634;BME280;55625;47.072;22.192;2023-07-13T03:23:22;99467.28;;;20.17;100.00
68634;BME280;55625;47.072;22.192;2023-07-13T03:25:48;99480.16;;;20.22;100.00
68634;BME280;55625;47.072;22.192;2023-07-13T03:28:15;99478.81;;;20.17;100.00
68634;BME280;55625;47.072;22.192;2023-07-13T03:30:42;99478.81;;;20.17;100.00
68634;BME280;55625;47.072;22.192;2023-07-13T03:33:08;99483.03;;;20.22;100.00
68634;BME280;55625;47.072;22.192;2023-07-13T03:35:35;99473.59;;;20.27;100.00
68634;BME280;55625;47.072;22.192;2023-07-13T03:38:00;99477.50;;;20.30;100.00
68634;BME280;55625;47.072;22.192;2023-07-13T03:40:27;99472.00;;;20.32;100.00
68634;BME280;55625;47.072;22.192;2023-07-13T03:42:53;99469.13;;;20.32;100.00
68634;BME280;55625;47.072;22.192;2023-07-13T03:45:20;99469.09;;;20.37;100.00
68634;BME280;55625;47.072;22.192;2023-07-13T03:47:45;99462.00;;;20.38;100.00
68634;BME280;55625;47.072;22.192;2023-07-13T03:50:11;99459.41;;;20.35;100.00
68634;BME280;55625;47.072;22.192;2023-07-13T03:52:37;99451.28;;;20.33;100.00
68634;BME280;55625;47.072;22.192;2023-07-13T03:55:04;99456.78;;;20.37;100.00
68634;BME280;55625;47.072;22.192;2023-07-13T03:57:31;99468.56;;;20.39;100.00
68634;BME280;55625;47.072;22.192;2023-07-13T03:59:57;99473.03;;;20.40;100.00
68634;BME280;55625;47.072;22.192;2023-07-13T04:02:22;99469.09;;;20.43;100.00
68634;BME280;55625;47.072;22.192;2023-07-13T04:04:48;99477.19;;;20.50;100.00
68634;BME280;55625;47.072;22.192;2023-07-13T04:07:14;99476.94;;;20.59;100.00
68634;BME280;55625;47.072;22.192;2023-07-13T04:09:40;99472.72;;;20.60;100.00
68634;BME280;55625;47.072;22.192;2023-07-13T04:12:06;99470.09;;;20.62;100.00
68634;BME280;55625;47.072;22.192;2023-07-13T04:14:32;99467.16;;;20.73;100.00
68634;BME280;55625;47.072;22.192;2023-07-13T04:16:58;99468.19;;;20.76;100.00
68634;BME280;55625;47.072;22.192;2023-07-13T04:19:24;99488.13;;;20.80;100.00
68634;BME280;55625;47.072;22.192;2023-07-13T04:21:50;99467.88;;;20.91;100.00
68634;BME280;55625;47.072;22.192;2023-07-13T04:24:16;99472.53;;;21.05;100.00
68634;BME280;55625;47.072;22.192;2023-07-13T04:26:41;99464.84;;;21.19;100.00
68634;BME280;55625;47.072;22.192;2023-07-13T04:29:07;99456.19;;;21.19;100.00
68634;BME280;55625;47.072;22.192;2023-07-13T04:31:33;99458.00;;;21.22;100.00
68634;BME280;55625;47.072;22.192;2023-07-13T04:33:59;99443.00;;;21.34;100.00
68634;BME280;55625;47.072;22.192;2023-07-13T04:36:26;99452.91;;;21.45;100.00
68634;BME280;55625;47.072;22.192;2023-07-13T04:38:54;99450.34;;;21.35;100.00
68634;BME280;55625;47.072;22.192;2023-07-13T04:41:21;99459.81;;;21.30;100.00
68634;BME280;55625;47.072;22.192;2023-07-13T04:43:48;99462.72;;;21.30;100.00
68634;BME280;55625;47.072;22.192;2023-07-13T04:46:16;99448.28;;;21.30;100.00
68634;BME280;55625;47.072;22.192;2023-07-13T04:48:43;99447.50;;;21.30;100.00
68634;BME280;55625;47.072;22.192;2023-07-13T04:51:09;99436.22;;;21.26;100.00
68634;BME280;55625;47.072;22.192;2023-07-13T04:53:36;99438.88;;;21.24;100.00
68634;BME280;55625;47.072;22.192;2023-07-13T04:56:03;99442.50;;;21.30;100.00
68634;BME280;55625;47.072;22.192;2023-07-13T04:58:29;99443.28;;;21.31;100.00
68634;BME280;55625;47.072;22.192;2023-07-13T05:01:05;99454.44;;;21.51;100.00
68634;BME280;55625;47.072;22.192;2023-07-13T05:03:32;99444.75;;;21.49;100.00
68634;BME280;55625;47.072;22.192;2023-07-13T05:06:07;99447.81;;;21.56;100.00
68634;BME280;55625;47.072;22.192;2023-07-13T05:08:35;99446.47;;;21.63;100.00
68634;BME280;55625;47.072;22.192;2023-07-13T05:11:03;99440.31;;;21.78;100.00
68634;BME280;55625;47.072;22.192;2023-07-13T05:13:30;99444.53;;;22.01;100.00
68634;BME280;55625;47.072;22.192;2023-07-13T05:16:02;99436.94;;;22.28;98.71
68634;BME280;55625;47.072;22.192;2023-07-13T05:18:29;99437.16;;;22.54;96.76
68634;BME280;55625;47.072;22.192;2023-07-13T05:21:06;99443.97;;;22.81;95.32
68634;BME280;55625;47.072;22.192;2023-07-13T05:23:34;99440.25;;;23.05;93.82
68634;BME280;55625;47.072;22.192;2023-07-13T05:26:02;99443.34;;;23.26;93.09
68634;BME280;55625;47.072;22.192;2023-07-13T05:28:31;99440.84;;;23.36;91.27
68634;BME280;55625;47.072;22.192;2023-07-13T05:30:58;99450.47;;;23.44;92.39
68634;BME280;55625;47.072;22.192;2023-07-13T05:33:25;99457.97;;;23.52;93.09
68634;BME280;55625;47.072;22.192;2023-07-13T05:35:51;99482.34;;;23.63;91.30
68634;BME280;55625;47.072;22.192;2023-07-13T05:38:17;99483.25;;;23.71;90.98
68634;BME280;55625;47.072;22.192;2023-07-13T05:40:44;99503.13;;;23.80;90.77
68634;BME280;55625;47.072;22.192;2023-07-13T05:43:10;99501.84;;;23.94;89.32
68634;BME280;55625;47.072;22.192;2023-07-13T05:45:37;99515.41;;;24.18;89.28
68634;BME280;55625;47.072;22.192;2023-07-13T05:48:02;99527.88;;;24.45;88.23
68634;BME280;55625;47.072;22.192;2023-07-13T05:50:28;99531.72;;;24.66;85.81
68634;BME280;55625;47.072;22.192;2023-07-13T05:52:54;99534.28;;;24.83;85.41
68634;BME280;55625;47.072;22.192;2023-07-13T05:55:20;99534.53;;;24.98;84.52
68634;BME280;55625;47.072;22.192;2023-07-13T05:57:46;99548.81;;;25.23;84.70
68634;BME280;55625;47.072;22.192;2023-07-13T06:00:13;99546.34;;;25.27;83.62
68634;BME280;55625;47.072;22.192;2023-07-13T06:02:39;99555.63;;;25.25;84.15
68634;BME280;55625;47.072;22.192;2023-07-13T06:05:05;99551.50;;;25.21;84.92
68634;BME280;55625;47.072;22.192;2023-07-13T06:07:31;99557.75;;;25.25;84.06
68634;BME280;55625;47.072;22.192;2023-07-13T06:09:57;99555.84;;;25.27;83.71
68634;BME280;55625;47.072;22.192;2023-07-13T06:12:25;99567.13;;;25.31;82.49
68634;BME280;55625;47.072;22.192;2023-07-13T06:14:51;99558.41;;;25.31;84.52
68634;BME280;55625;47.072;22.192;2023-07-13T06:17:17;99555.72;;;25.33;82.99
68634;BME280;55625;47.072;22.192;2023-07-13T06:19:44;99547.91;;;25.28;82.97
68634;BME280;55625;47.072;22.192;2023-07-13T06:22:10;99545.69;;;25.21;85.52
68634;BME280;55625;47.072;22.192;2023-07-13T06:24:36;99532.72;;;25.22;83.88
68634;BME280;55625;47.072;22.192;2023-07-13T06:27:02;99542.66;;;25.26;83.06
68634;BME280;55625;47.072;22.192;2023-07-13T06:29:28;99538.50;;;25.35;82.99
68634;BME280;55625;47.072;22.192;2023-07-13T06:31:54;99540.97;;;25.44;83.34
68634;BME280;55625;47.072;22.192;2023-07-13T06:34:20;99523.75;;;25.46;82.86
68634;BME280;55625;47.072;22.192;2023-07-13T06:36:45;99522.41;;;25.47;82.58
68634;BME280;55625;47.072;22.192;2023-07-13T06:39:11;99525.53;;;25.49;83.74
68634;BME280;55625;47.072;22.192;2023-07-13T06:41:37;99523.63;;;25.52;84.96
68634;BME280;55625;47.072;22.192;2023-07-13T06:44:04;99521.50;;;25.52;85.10
68634;BME280;55625;47.072;22.192;2023-07-13T06:46:30;99526.19;;;25.55;85.88
68634;BME280;55625;47.072;22.192;2023-07-13T06:48:56;99542.50;;;25.58;86.98
68634;BME280;55625;47.072;22.192;2023-07-13T06:51:22;99575.81;;;25.57;87.89
68634;BME280;55625;47.072;22.192;2023-07-13T06:53:48;99542.19;;;25.35;94.56
68634;BME280;55625;47.072;22.192;2023-07-13T06:56:15;99545.47;;;25.19;93.68
68634;BME280;55625;47.072;22.192;2023-07-13T06:58:41;99530.72;;;24.90;97.29
68634;BME280;55625;47.072;22.192;2023-07-13T07:01:08;99547.22;;;24.56;97.56
68634;BME280;55625;47.072;22.192;2023-07-13T07:03:34;99627.38;;;24.72;97.95
68634;BME280;55625;47.072;22.192;2023-07-13T07:06:06;99672.91;;;24.64;96.34
68634;BME280;55625;47.072;22.192;2023-07-13T07:08:38;99675.72;;;24.37;95.29
68634;BME280;55625;47.072;22.192;2023-07-13T07:11:04;99693.22;;;24.32;93.78
68634;BME280;55625;47.072;22.192;2023-07-13T07:13:29;99658.19;;;23.92;87.56
68634;BME280;55625;47.072;22.192;2023-07-13T07:15:56;99662.53;;;23.37;88.56
68634;BME280;55625;47.072;22.192;2023-07-13T07:18:21;99649.84;;;22.91;89.00
68634;BME280;55625;47.072;22.192;2023-07-13T07:20:49;99620.53;;;22.46;90.19
68634;BME280;55625;47.072;22.192;2023-07-13T07:23:15;99619.16;;;22.22;90.42
68634;BME280;55625;47.072;22.192;2023-07-13T07:25:43;99611.13;;;21.98;92.81
68634;BME280;55625;47.072;22.192;2023-07-13T07:28:09;99559.25;;;21.82;94.50
68634;BME280;55625;47.072;22.192;2023-07-13T07:30:35;99535.25;;;21.57;96.02
68634;BME280;55625;47.072;22.192;2023-07-13T07:33:01;99531.13;;;21.47;97.73
68634;BME280;55625;47.072;22.192;2023-07-13T07:35:27;99527.69;;;21.48;97.52
68634;BME280;55625;47.072;22.192;2023-07-13T07:37:53;99524.66;;;21.29;100.00
68634;BME280;55625;47.072;22.192;2023-07-13T07:40:19;99515.25;;;21.23;100.00
68634;BME280;55625;47.072;22.192;2023-07-13T07:42:45;99509.78;;;21.03;100.00
68634;BME280;55625;47.072;22.192;2023-07-13T07:45:11;99480.97;;;20.97;100.00
68634;BME280;55625;47.072;22.192;2023-07-13T07:47:37;99454.22;;;20.97;100.00
68634;BME280;55625;47.072;22.192;2023-07-13T07:50:04;99433.84;;;20.84;100.00
68634;BME280;55625;47.072;22.192;2023-07-13T07:52:30;99429.06;;;20.92;100.00
68634;BME280;55625;47.072;22.192;2023-07-13T07:54:56;99390.78;;;20.91;100.00
68634;BME280;55625;47.072;22.192;2023-07-13T07:57:22;99349.81;;;20.98;100.00
68634;BME280;55625;47.072;22.192;2023-07-13T07:59:47;99331.03;;;20.86;100.00
68634;BME280;55625;47.072;22.192;2023-07-13T08:02:14;99305.25;;;20.94;100.00
68634;BME280;55625;47.072;22.192;2023-07-13T08:04:39;99320.19;;;20.98;100.00
68634;BME280;55625;47.072;22.192;2023-07-13T08:07:05;99324.81;;;21.06;100.00
68634;BME280;55625;47.072;22.192;2023-07-13T08:11:57;99374.84;;;21.20;100.00
68634;BME280;55625;47.072;22.192;2023-07-13T08:14:23;99400.81;;;21.26;100.00
68634;BME280;55625;47.072;22.192;2023-07-13T08:16:49;99418.31;;;21.33;100.00
68634;BME280;55625;47.072;22.192;2023-07-13T08:19:15;99438.25;;;21.37;100.00
68634;BME280;55625;47.072;22.192;2023-07-13T08:21:41;99470.25;;;21.45;100.00
68634;BME280;55625;47.072;22.192;2023-07-13T08:24:09;99489.38;;;21.48;100.00
68634;BME280;55625;47.072;22.192;2023-07-13T08:26:35;99500.88;;;21.53;100.00
68634;BME280;55625;47.072;22.192;2023-07-13T08:29:00;99504.75;;;21.61;100.00
68634;BME280;55625;47.072;22.192;2023-07-13T08:31:27;99515.50;;;21.66;100.00
68634;BME280;55625;47.072;22.192;2023-07-13T08:33:53;99517.84;;;21.68;100.00
68634;BME280;55625;47.072;22.192;2023-07-13T08:36:19;99537.75;;;21.77;100.00
68634;BME280;55625;47.072;22.192;2023-07-13T08:38:45;99538.50;;;21.83;100.00
68634;BME280;55625;47.072;22.192;2023-07-13T08:41:15;99533.53;;;21.78;100.00
68634;BME280;55625;47.072;22.192;2023-07-13T08:43:48;99527.28;;;21.74;100.00
68634;BME280;55625;47.072;22.192;2023-07-13T08:46:37;99530.41;;;21.76;100.00
68634;BME280;55625;47.072;22.192;2023-07-13T08:49:19;99523.06;;;21.75;100.00
68634;BME280;55625;47.072;22.192;2023-07-13T08:52:26;99520.91;;;21.81;100.00
68634;BME280;55625;47.072;22.192;2023-07-13T08:54:55;99521.91;;;21.89;100.00
68634;BME280;55625;47.072;22.192;2023-07-13T08:57:32;99513.91;;;22.07;100.00
68634;BME280;55625;47.072;22.192;2023-07-13T08:59:58;99516.38;;;22.21;100.00
68634;BME280;55625;47.072;22.192;2023-07-13T09:02:52;99518.63;;;22.34;100.00
68634;BME280;55625;47.072;22.192;2023-07-13T09:05:40;99523.78;;;22.47;100.00
68634;BME280;55625;47.072;22.192;2023-07-13T09:11:33;99526.00;;;22.59;100.00
68634;BME280;55625;47.072;22.192;2023-07-13T09:14:39;99523.34;;;22.61;99.87
68634;BME280;55625;47.072;22.192;2023-07-13T09:17:22;99517.44;;;22.73;98.65
68634;BME280;55625;47.072;22.192;2023-07-13T09:22:43;99505.88;;;22.73;99.89
68634;BME280;55625;47.072;22.192;2023-07-13T09:25:31;99514.78;;;22.75;100.00
68634;BME280;55625;47.072;22.192;2023-07-13T09:28:28;99515.00;;;22.82;100.00
68634;BME280;55625;47.072;22.192;2023-07-13T09:33:41;99519.84;;;22.93;97.88
68634;BME280;55625;47.072;22.192;2023-07-13T09:36:33;99505.38;;;22.93;93.84
68634;BME280;55625;47.072;22.192;2023-07-13T09:39:27;99511.28;;;23.06;95.43
68634;BME280;55625;47.072;22.192;2023-07-13T09:44:42;99511.34;;;23.19;93.20
68634;BME280;55625;47.072;22.192;2023-07-13T09:47:26;99508.94;;;23.23;93.89
68634;BME280;55625;47.072;22.192;2023-07-13T09:50:08;99511.28;;;23.25;94.01
68634;BME280;55625;47.072;22.192;2023-07-13T09:52:49;99504.34;;;23.34;91.47
68634;BME280;55625;47.072;22.192;2023-07-13T09:55:31;99505.97;;;23.48;90.31
68634;BME280;55625;47.072;22.192;2023-07-13T09:58:14;99495.97;;;23.68;91.41
68634;BME280;55625;47.072;22.192;2023-07-13T10:00:42;99495.91;;;23.87;90.40
68634;BME280;55625;47.072;22.192;2023-07-13T10:03:22;99506.91;;;24.07;92.53
68634;BME280;55625;47.072;22.192;2023-07-13T10:05:51;99507.75;;;24.21;90.64
68634;BME280;55625;47.072;22.192;2023-07-13T10:08:28;99515.00;;;24.27;88.57
68634;BME280;55625;47.072;22.192;2023-07-13T10:11:14;99521.50;;;24.33;89.79
68634;BME280;55625;47.072;22.192;2023-07-13T10:13:54;99527.19;;;24.39;88.35
68634;BME280;55625;47.072;22.192;2023-07-13T10:16:28;99526.97;;;24.37;87.31
68634;BME280;55625;47.072;22.192;2023-07-13T10:19:10;99526.19;;;24.36;87.64
68634;BME280;55625;47.072;22.192;2023-07-13T10:22:16;99537.13;;;24.43;88.36
68634;BME280;55625;47.072;22.192;2023-07-13T10:24:46;99533.81;;;24.53;88.54
68634;BME280;55625;47.072;22.192;2023-07-13T10:27:29;99535.50;;;24.61;88.74
68634;BME280;55625;47.072;22.192;2023-07-13T10:30:09;99526.91;;;24.69;88.69
68634;BME280;55625;47.072;22.192;2023-07-13T10:32:37;99534.94;;;24.76;88.85
68634;BME280;55625;47.072;22.192;2023-07-13T10:35:03;99525.38;;;24.81;87.20
68634;BME280;55625;47.072;22.192;2023-07-13T10:41:07;99526.69;;;24.93;83.64
68634;BME280;55625;47.072;22.192;2023-07-13T10:43:53;99523.59;;;25.04;83.20
68634;BME280;55625;47.072;22.192;2023-07-13T10:46:24;99520.13;;;25.19;81.44
68634;BME280;55625;47.072;22.192;2023-07-13T10:48:58;99515.47;;;25.37;81.95
68634;BME280;55625;47.072;22.192;2023-07-13T10:51:25;99506.97;;;25.52;82.92
68634;BME280;55625;47.072;22.192;2023-07-13T10:54:32;99510.50;;;25.72;81.21
68634;BME280;55625;47.072;22.192;2023-07-13T10:57:18;99510.44;;;25.85;79.43
68634;BME280;55625;47.072;22.192;2023-07-13T11:00:17;99512.19;;;25.67;80.33
68634;BME280;55625;47.072;22.192;2023-07-13T11:02:43;99504.22;;;25.81;81.96
68634;BME280;55625;47.072;22.192;2023-07-13T11:08:33;99503.44;;;26.22;80.07
68634;BME280;55625;47.072;22.192;2023-07-13T11:10:59;99498.97;;;26.42;81.19
68634;BME280;55625;47.072;22.192;2023-07-13T11:21:26;99495.34;;;27.06;77.45
68634;BME280;55625;47.072;22.192;2023-07-13T11:24:15;99498.63;;;27.02;77.40
68634;BME280;55625;47.072;22.192;2023-07-13T11:29:36;99501.69;;;26.97;78.76
68634;BME280;55625;47.072;22.192;2023-07-13T11:32:30;99501.69;;;26.97;79.20
68634;BME280;55625;47.072;22.192;2023-07-13T11:34:56;99507.94;;;27.01;78.19
68634;BME280;55625;47.072;22.192;2023-07-13T11:37:23;99502.81;;;26.93;78.51
68634;BME280;55625;47.072;22.192;2023-07-13T11:39:51;99501.09;;;26.98;78.06
68634;BME280;55625;47.072;22.192;2023-07-13T11:42:20;99500.06;;;27.24;76.57
68634;BME280;55625;47.072;22.192;2023-07-13T11:44:49;99501.44;;;27.23;77.98
68634;BME280;55625;47.072;22.192;2023-07-13T11:47:20;99497.25;;;27.39;76.69
68634;BME280;55625;47.072;22.192;2023-07-13T11:49:54;99499.41;;;27.54;76.68
68634;BME280;55625;47.072;22.192;2023-07-13T11:52:37;99491.72;;;27.64;74.62
68634;BME280;55625;47.072;22.192;2023-07-13T11:55:15;99497.97;;;27.76;74.25
68634;BME280;55625;47.072;22.192;2023-07-13T11:57:54;99489.19;;;27.68;73.61
68634;BME280;55625;47.072;22.192;2023-07-13T12:00:27;99486.81;;;27.59;73.97
68634;BME280;55625;47.072;22.192;2023-07-13T12:02:57;99487.59;;;27.60;73.70
68634;BME280;55625;47.072;22.192;2023-07-13T12:05:25;99483.88;;;27.51;72.48
68634;BME280;55625;47.072;22.192;2023-07-13T12:07:51;99473.59;;;27.58;71.76
68634;BME280;55625;47.072;22.192;2023-07-13T12:10:29;99485.06;;;27.56;72.00
68634;BME280;55625;47.072;22.192;2023-07-13T12:12:59;99484.53;;;27.65;72.29
68634;BME280;55625;47.072;22.192;2023-07-13T12:15:39;99473.44;;;27.64;70.63
68634;BME280;55625;47.072;22.192;2023-07-13T12:18:23;99490.84;;;27.41;71.15
68634;BME280;55625;47.072;22.192;2023-07-13T12:20:58;99484.22;;;27.33;71.58
68634;BME280;55625;47.072;22.192;2023-07-13T12:23:33;99477.00;;;27.34;72.33
68634;BME280;55625;47.072;22.192;2023-07-13T12:26:03;99482.69;;;27.47;73.19
68634;BME280;55625;47.072;22.192;2023-07-13T12:28:39;99482.69;;;27.54;73.50
68634;BME280;55625;47.072;22.192;2023-07-13T12:34:20;99481.06;;;27.82;70.79
68634;BME280;55625;47.072;22.192;2023-07-13T12:37:00;99472.91;;;27.88;72.42
68634;BME280;55625;47.072;22.192;2023-07-13T12:39:46;99473.31;;;27.92;73.13
68634;BME280;55625;47.072;22.192;2023-07-13T12:42:26;99470.97;;;28.06;72.00
68634;BME280;55625;47.072;22.192;2023-07-13T12:45:19;99466.13;;;28.01;72.31
68634;BME280;55625;47.072;22.192;2023-07-13T12:47:50;99470.78;;;27.96;72.54
68634;BME280;55625;47.072;22.192;2023-07-13T12:50:23;99471.56;;;27.89;72.97
68634;BME280;55625;47.072;22.192;2023-07-13T12:52:59;99471.34;;;27.87;73.62
68634;BME280;55625;47.072;22.192;2023-07-13T12:55:27;99473.91;;;27.98;72.41
68634;BME280;55625;47.072;22.192;2023-07-13T12:57:59;99464.94;;;28.04;71.29
68634;BME280;55625;47.072;22.192;2023-07-13T13:00:33;99466.69;;;28.07;68.93
68634;BME280;55625;47.072;22.192;2023-07-13T13:05:49;99458.19;;;28.24;69.83
68634;BME280;55625;47.072;22.192;2023-07-13T13:08:15;99465.75;;;28.27;68.67
68634;BME280;55625;47.072;22.192;2023-07-13T13:10:41;99454.06;;;28.20;69.38
68634;BME280;55625;47.072;22.192;2023-07-13T13:13:06;99462.06;;;28.34;70.09
68634;BME280;55625;47.072;22.192;2023-07-13T13:15:34;99457.13;;;28.67;69.66
68634;BME280;55625;47.072;22.192;2023-07-13T13:18:02;99458.50;;;28.89;69.56
68634;BME280;55625;47.072;22.192;2023-07-13T13:20:28;99457.59;;;29.19;69.33
68634;BME280;55625;47.072;22.192;2023-07-13T13:22:54;99463.78;;;29.31;69.63
68634;BME280;55625;47.072;22.192;2023-07-13T13:25:21;99457.72;;;29.44;67.92
68634;BME280;55625;47.072;22.192;2023-07-13T13:27:48;99463.72;;;29.38;67.85
68634;BME280;55625;47.072;22.192;2023-07-13T13:30:17;99462.19;;;29.37;66.41
68634;BME280;55625;47.072;22.192;2023-07-13T13:32:46;99471.53;;;29.44;66.69
68634;BME280;55625;47.072;22.192;2023-07-13T13:35:18;99468.41;;;29.49;66.53
68634;BME280;55625;47.072;22.192;2023-07-13T13:37:45;99465.25;;;29.55;64.28
68634;BME280;55625;47.072;22.192;2023-07-13T13:40:19;99451.84;;;29.36;65.67